Time;durP1;ratioP1;P1;durP2;ratioP2;P2;SDS_P1;SDS_P2;PMS_P1;PMS_P2;Temp;Humidity;BMP_temperature;BMP_pressure;BME280_temperature;BME280_humidity;BME280_pressure;Samples;Min_cycle;Max_cycle;Signal;HPM_P1;HPM_P2
2024/01/26 00:01:22;;;;;;;3.73;1.93;;;3.60;99.90;;;;;;4228661;28;20628;-59
2024/01/26 00:03:23;;;;;;;6.10;2.27;;;3.60;99.90;;;;;;4227445;28;20321;-58
2024/01/26 00:05:24;;;;;;;9.73;2.30;;;3.60;99.90;;;;;;4228439;28;20332;-58
2024/01/26 00:07:25;;;;;;;3.00;1.90;;;3.60;99.90;;;;;;4227395;28;20264;-60
2024/01/26 00:09:27;;;;;;;3.63;1.57;;;3.60;99.90;;;;;;4229331;28;20280;-60
2024/01/26 00:11:28;;;;;;;5.13;2.07;;;3.60;99.90;;;;;;4227071;28;20268;-59
2024/01/26 00:13:29;;;;;;;5.20;1.50;;;3.60;99.90;;;;;;4228043;28;20332;-55
2024/01/26 00:15:30;;;;;;;4.73;1.37;;;3.70;99.90;;;;;;4228034;28;20272;-59
2024/01/26 00:17:31;;;;;;;5.27;1.90;;;3.70;99.90;;;;;;4228154;28;20276;-57
2024/01/26 00:19:32;;;;;;;5.10;1.77;;;3.70;99.90;;;;;;4228260;27;20288;-60
2024/01/26 00:21:34;;;;;;;6.70;1.80;;;3.70;99.90;;;;;;4226794;28;20392;-60
2024/01/26 00:23:35;;;;;;;6.53;1.63;;;3.70;99.90;;;;;;4228100;28;20644;-59
2024/01/26 00:25:36;;;;;;;4.27;1.40;;;3.70;99.90;;;;;;4227350;28;20352;-60
2024/01/26 00:27:37;;;;;;;6.03;1.97;;;3.80;99.90;;;;;;4228103;28;20309;-59
2024/01/26 00:29:39;;;;;;;2.73;1.67;;;3.80;99.90;;;;;;4227391;28;20267;-59
2024/01/26 00:31:40;;;;;;;3.50;1.10;;;3.80;99.90;;;;;;4228655;28;20331;-57
2024/01/26 00:33:41;;;;;;;6.97;1.27;;;3.90;99.90;;;;;;4226961;28;20280;-60
2024/01/26 00:35:42;;;;;;;8.33;1.13;;;3.90;99.90;;;;;;4227948;28;20268;-60
2024/01/26 00:37:43;;;;;;;2.57;1.97;;;3.90;99.90;;;;;;4227193;28;20805;-60
2024/01/26 00:39:45;;;;;;;5.40;1.77;;;3.90;99.90;;;;;;4228678;28;20835;-59
2024/01/26 00:41:46;;;;;;;2.93;1.50;;;4.00;99.90;;;;;;4227378;28;20283;-60
2024/01/26 00:43:48;;;;;;;6.30;1.17;;;4.00;99.90;;;;;;4228359;28;20297;-60
2024/01/26 00:45:49;;;;;;;1.77;0.83;;;4.00;99.90;;;;;;4227327;28;20333;-60
2024/01/26 00:47:50;;;;;;;2.77;1.10;;;3.90;99.90;;;;;;4227988;28;20325;-60
2024/01/26 00:49:51;;;;;;;3.17;1.67;;;3.90;99.90;;;;;;4227440;28;20276;-60
2024/01/26 00:51:52;;;;;;;4.67;1.30;;;3.80;99.90;;;;;;4227717;28;20273;-59
2024/01/26 00:53:53;;;;;;;3.97;1.50;;;3.80;99.90;;;;;;4227614;28;20325;-60
2024/01/26 00:55:55;;;;;;;4.80;1.47;;;3.70;99.90;;;;;;4227125;28;20276;-59
2024/01/26 00:57:56;;;;;;;5.23;1.20;;;3.70;99.90;;;;;;4227901;28;20264;-58
2024/01/26 00:59:59;;;;;;;3.23;1.07;;;3.60;99.90;;;;;;4227430;28;20272;-60
2024/01/26 01:02:00;;;;;;;3.37;1.13;;;3.60;99.90;;;;;;4228185;28;20376;-58
2024/01/26 01:04:02;;;;;;;4.10;1.13;;;3.50;99.90;;;;;;4227160;28;20276;-61
2024/01/26 01:06:03;;;;;;;4.37;2.00;;;3.40;99.90;;;;;;4226818;28;20271;-59
2024/01/26 01:08:04;;;;;;;3.73;1.27;;;3.40;99.90;;;;;;4227314;28;20268;-60
2024/01/26 01:10:06;;;;;;;3.70;1.00;;;3.30;99.90;;;;;;4228629;28;20317;-61
2024/01/26 01:12:07;;;;;;;7.00;2.07;;;3.30;99.90;;;;;;4226965;28;20272;-60
2024/01/26 01:14:09;;;;;;;4.60;1.00;;;3.20;99.90;;;;;;4228384;28;20820;-60
2024/01/26 01:16:12;;;;;;;3.97;1.10;;;3.20;99.90;;;;;;4226898;28;20267;-54
2024/01/26 01:18:13;;;;;;;3.67;1.23;;;3.20;99.90;;;;;;4227417;28;20284;-59
2024/01/26 01:20:15;;;;;;;6.00;1.30;;;3.20;99.90;;;;;;4227091;28;20816;-60
2024/01/26 01:22:16;;;;;;;4.00;1.03;;;3.10;99.90;;;;;;4227012;28;20616;-59
2024/01/26 01:24:18;;;;;;;4.73;1.90;;;3.10;99.90;;;;;;4230757;28;20256;-59
2024/01/26 01:26:19;;;;;;;3.80;1.33;;;3.10;99.90;;;;;;4230608;28;20341;-61
2024/01/26 01:28:20;;;;;;;2.57;1.03;;;3.10;99.90;;;;;;4230642;28;21019;-61
2024/01/26 01:30:21;;;;;;;2.50;1.40;;;3.10;99.90;;;;;;4224965;28;20252;-60
2024/01/26 01:32:22;;;;;;;2.60;1.07;;;3.10;99.90;;;;;;4214251;28;20813;-60
2024/01/26 01:34:24;;;;;;;4.10;1.17;;;3.00;99.90;;;;;;4213055;28;20760;-59
2024/01/26 01:36:25;;;;;;;1.60;1.07;;;3.00;99.90;;;;;;4214196;28;20314;-59
2024/01/26 01:38:26;;;;;;;3.43;1.50;;;3.00;99.90;;;;;;4212555;28;20292;-61
2024/01/26 01:40:28;;;;;;;5.53;1.70;;;3.00;99.90;;;;;;4227644;28;20836;-60
2024/01/26 01:42:29;;;;;;;4.20;1.50;;;3.00;99.90;;;;;;4229756;28;20272;-60
2024/01/26 01:44:33;;;;;;;3.67;1.37;;;3.00;99.90;;;;;;4231342;27;20808;-60
2024/01/26 01:46:34;;;;;;;2.90;1.63;;;3.00;99.90;;;;;;4230247;27;20321;-58
2024/01/26 01:48:35;;;;;;;7.73;1.80;;;3.00;99.90;;;;;;4230936;28;20260;-59
2024/01/26 01:50:37;;;;;;;2.90;1.50;;;3.00;99.90;;;;;;4230023;28;20317;-59
2024/01/26 01:52:41;;;;;;;4.97;1.63;;;2.90;99.90;;;;;;4231032;27;20340;-61
2024/01/26 01:54:43;;;;;;;3.20;1.80;;;2.90;99.90;;;;;;4230015;28;20309;-59
2024/01/26 01:56:45;;;;;;;5.20;2.20;;;2.90;99.90;;;;;;4230640;27;20268;-60
2024/01/26 01:58:46;;;;;;;5.70;1.93;;;2.80;99.90;;;;;;4230240;27;20296;-60
2024/01/26 02:00:48;;;;;;;6.47;2.30;;;2.80;99.90;;;;;;4230126;28;20268;-59
2024/01/26 02:02:50;;;;;;;5.77;2.17;;;2.80;99.90;;;;;;4230762;28;20313;-60
2024/01/26 02:04:51;;;;;;;8.07;2.77;;;2.80;99.90;;;;;;4229591;28;20256;-60
2024/01/26 02:07:04;;;;;;;4.10;2.03;;;2.80;99.90;;;;;;4230851;27;20268;-60
2024/01/26 02:09:06;;;;;;;4.63;1.63;;;2.80;99.90;;;;;;4229439;28;20674;-59
2024/01/26 02:11:07;;;;;;;6.60;2.40;;;2.80;99.90;;;;;;4231214;27;20272;-59
2024/01/26 02:13:08;;;;;;;4.13;1.97;;;2.80;99.90;;;;;;4229356;28;20252;-60
2024/01/26 02:15:10;;;;;;;10.00;2.37;;;2.80;99.90;;;;;;4230686;27;20264;-60
2024/01/26 02:17:11;;;;;;;4.83;1.73;;;2.80;99.90;;;;;;4229681;28;20253;-58
2024/01/26 02:19:15;;;;;;;5.87;1.80;;;2.80;99.90;;;;;;4230508;28;20337;-59
2024/01/26 02:21:16;;;;;;;5.53;1.97;;;2.80;99.90;;;;;;4228961;28;20609;-59
2024/01/26 02:23:24;;;;;;;4.33;1.57;;;2.80;99.90;;;;;;4230233;28;20276;-59
2024/01/26 02:25:25;;;;;;;4.93;1.80;;;2.80;99.90;;;;;;4229183;27;20267;-60
2024/01/26 02:27:26;;;;;;;5.60;1.60;;;2.80;99.90;;;;;;4230381;27;20256;-58
2024/01/26 02:29:27;;;;;;;5.03;2.07;;;2.80;99.90;;;;;;4229077;28;20240;-60
2024/01/26 02:31:28;;;;;;;5.77;1.80;;;2.80;99.90;;;;;;4230062;28;20654;-59
2024/01/26 02:33:29;;;;;;;6.33;1.87;;;2.80;99.90;;;;;;4229070;28;20336;-59
2024/01/26 02:35:30;;;;;;;2.23;1.50;;;2.80;99.90;;;;;;4228842;28;20330;-61
2024/01/26 02:37:32;;;;;;;5.87;1.60;;;2.80;99.90;;;;;;4229573;27;20310;-58
2024/01/26 02:39:33;;;;;;;3.60;1.80;;;2.80;99.90;;;;;;4229315;27;20292;-60
2024/01/26 02:41:35;;;;;;;4.73;2.20;;;2.90;99.90;;;;;;4230265;28;20744;-56
2024/01/26 02:43:36;;;;;;;4.33;1.60;;;2.90;99.90;;;;;;4228900;28;20333;-59
2024/01/26 02:45:37;;;;;;;3.83;1.47;;;2.90;99.90;;;;;;4230071;28;20268;-61
2024/01/26 02:47:38;;;;;;;8.70;2.30;;;2.90;99.90;;;;;;4228567;28;20280;-60
2024/01/26 02:49:44;;;;;;;3.70;1.63;;;2.90;99.90;;;;;;4230209;27;20314;-59
2024/01/26 02:51:45;;;;;;;6.63;2.63;;;2.90;99.90;;;;;;4228725;28;20305;-60
2024/01/26 02:53:46;;;;;;;8.60;2.10;;;2.90;99.90;;;;;;4228869;28;20264;-60
2024/01/26 02:55:47;;;;;;;3.93;1.73;;;2.90;99.90;;;;;;4228869;28;20313;-61
2024/01/26 02:57:48;;;;;;;5.33;2.77;;;3.00;99.90;;;;;;4230079;27;20260;-60
2024/01/26 02:59:50;;;;;;;3.27;1.40;;;3.00;99.90;;;;;;4228593;28;20291;-61
2024/01/26 03:01:51;;;;;;;5.37;2.40;;;3.00;99.90;;;;;;4230039;28;20272;-62
2024/01/26 03:03:52;;;;;;;3.30;2.07;;;3.00;99.90;;;;;;4228750;28;20248;-61
2024/01/26 03:05:53;;;;;;;5.07;2.00;;;3.00;99.90;;;;;;4229390;27;20317;-59
2024/01/26 03:07:54;;;;;;;4.10;1.60;;;3.00;99.90;;;;;;4228837;27;20762;-60
2024/01/26 03:09:55;;;;;;;4.33;2.27;;;3.10;99.90;;;;;;4228963;27;20685;-61
2024/01/26 03:11:57;;;;;;;4.90;1.70;;;3.10;99.90;;;;;;4228997;28;20252;-59
2024/01/26 03:13:58;;;;;;;5.47;2.37;;;3.10;99.90;;;;;;4224248;28;20474;-60
2024/01/26 03:15:59;;;;;;;3.73;1.80;;;3.10;99.90;;;;;;4226367;28;20723;-60
2024/01/26 03:18:00;;;;;;;2.67;1.73;;;3.10;99.90;;;;;;4228572;27;20336;-60
2024/01/26 03:20:02;;;;;;;8.50;2.20;;;3.10;99.90;;;;;;4227895;28;20314;-60
2024/01/26 03:22:04;;;;;;;5.00;1.80;;;3.20;99.90;;;;;;4228260;27;20779;-60
2024/01/26 03:24:05;;;;;;;7.17;2.00;;;3.20;99.90;;;;;;4229409;28;20268;-59
2024/01/26 03:26:06;;;;;;;6.40;1.80;;;3.20;99.90;;;;;;4228217;28;20264;-60
2024/01/26 03:28:08;;;;;;;5.07;1.60;;;3.20;99.90;;;;;;4229296;27;20329;-60
2024/01/26 03:30:09;;;;;;;6.07;1.50;;;3.10;99.90;;;;;;4227888;28;20279;-60
2024/01/26 03:32:11;;;;;;;4.50;1.63;;;3.10;99.90;;;;;;4229238;28;20276;-60
2024/01/26 03:34:12;;;;;;;4.53;1.07;;;3.20;99.90;;;;;;4228223;28;20597;-60
2024/01/26 03:36:13;;;;;;;6.20;1.70;;;3.20;99.90;;;;;;4229075;28;20256;-60
2024/01/26 03:38:15;;;;;;;3.27;1.70;;;3.20;99.90;;;;;;4228240;28;20240;-60
2024/01/26 03:40:17;;;;;;;2.70;1.23;;;3.30;99.90;;;;;;4228909;28;20368;-60
2024/01/26 03:42:18;;;;;;;4.47;1.20;;;3.30;99.90;;;;;;4228440;28;20252;-57
2024/01/26 03:44:19;;;;;;;2.63;1.13;;;3.30;99.90;;;;;;4228255;28;20616;-61
2024/01/26 03:46:21;;;;;;;4.90;1.17;;;3.30;99.90;;;;;;4228909;27;20615;-60
2024/01/26 03:48:22;;;;;;;5.40;1.50;;;3.30;99.90;;;;;;4227894;28;20276;-59
2024/01/26 03:50:23;;;;;;;12.60;5.90;;;3.30;99.90;;;;;;4229147;28;20276;-57
2024/01/26 03:52:24;;;;;;;6.30;2.80;;;3.30;99.90;;;;;;4227779;28;20321;-58
2024/01/26 03:54:25;;;;;;;2.97;1.23;;;3.30;99.90;;;;;;4228946;28;20268;-60
2024/01/26 03:56:26;;;;;;;4.60;1.87;;;3.30;99.90;;;;;;4227760;28;20341;-61
2024/01/26 03:58:28;;;;;;;2.20;1.20;;;3.30;99.90;;;;;;4228926;28;20256;-60
2024/01/26 04:00:29;;;;;;;2.87;1.30;;;3.30;99.90;;;;;;4227696;28;20325;-60
2024/01/26 04:02:30;;;;;;;3.00;0.93;;;3.30;99.90;;;;;;4228900;28;20256;-59
2024/01/26 04:04:31;;;;;;;1.63;0.90;;;3.30;99.90;;;;;;4227585;28;20249;-60
2024/01/26 04:06:33;;;;;;;2.47;1.40;;;3.30;99.90;;;;;;4229151;28;20260;-61
2024/01/26 04:08:34;;;;;;;2.20;0.73;;;3.30;99.90;;;;;;4227687;28;20264;-59
2024/01/26 04:10:35;;;;;;;5.23;1.20;;;3.20;99.90;;;;;;4229064;27;20324;-60
2024/01/26 04:12:36;;;;;;;3.57;1.10;;;3.20;99.90;;;;;;4227726;28;20317;-60
2024/01/26 04:14:37;;;;;;;1.93;1.10;;;3.20;99.90;;;;;;4228072;28;20260;-61
2024/01/26 04:16:38;;;;;;;4.23;1.27;;;3.20;99.90;;;;;;4228485;28;20306;-58
2024/01/26 04:18:41;;;;;;;7.00;1.33;;;3.10;99.90;;;;;;4227546;28;20752;-59
2024/01/26 04:20:42;;;;;;;2.00;1.10;;;3.10;99.90;;;;;;4228117;28;20727;-60
2024/01/26 04:22:45;;;;;;;2.53;1.00;;;3.10;99.90;;;;;;4227533;28;20342;-57
2024/01/26 04:24:46;;;;;;;2.07;1.37;;;3.10;99.90;;;;;;4228495;28;20264;-60
2024/01/26 04:26:48;;;;;;;3.67;1.23;;;3.10;99.90;;;;;;4227387;28;20303;-60
2024/01/26 04:28:49;;;;;;;4.43;1.20;;;3.10;99.90;;;;;;4228433;28;20276;-59
2024/01/26 04:30:51;;;;;;;1.77;0.97;;;3.00;99.90;;;;;;4227635;28;20297;-60
2024/01/26 04:32:52;;;;;;;1.80;1.07;;;3.00;99.90;;;;;;4228170;28;20272;-60
2024/01/26 04:34:53;;;;;;;3.83;1.13;;;3.00;99.90;;;;;;4227132;28;20313;-58
2024/01/26 04:36:54;;;;;;;1.70;0.60;;;3.00;99.90;;;;;;4228043;28;20328;-60
2024/01/26 04:38:58;;;;;;;2.13;0.90;;;3.00;99.90;;;;;;4226995;28;20287;-58
2024/01/26 04:40:59;;;;;;;1.17;0.60;;;3.00;99.90;;;;;;4228772;28;20264;-61
2024/01/26 04:43:01;;;;;;;1.27;0.60;;;3.00;99.90;;;;;;4226712;28;20240;-59
2024/01/26 04:45:02;;;;;;;2.13;1.03;;;3.00;99.90;;;;;;4227876;28;20276;-61
2024/01/26 04:47:04;;;;;;;1.67;0.70;;;3.00;99.90;;;;;;4227472;28;20248;-59
2024/01/26 04:49:05;;;;;;;1.70;0.80;;;3.00;99.90;;;;;;4227526;28;20658;-59
2024/01/26 04:51:06;;;;;;;2.50;1.33;;;3.00;99.90;;;;;;4227413;28;20775;-55
2024/01/26 04:53:07;;;;;;;3.73;1.30;;;3.00;99.90;;;;;;4226842;28;20256;-60
2024/01/26 04:55:08;;;;;;;0.90;0.80;;;3.00;99.90;;;;;;4227172;28;20747;-61
2024/01/26 04:57:10;;;;;;;1.97;1.00;;;2.90;99.90;;;;;;4226919;28;20333;-60
2024/01/26 04:59:11;;;;;;;2.07;1.17;;;2.90;99.90;;;;;;4231473;28;20340;-59
2024/01/26 05:01:12;;;;;;;1.10;0.70;;;2.90;99.90;;;;;;4229562;27;20310;-59
2024/01/26 05:03:13;;;;;;;1.07;0.67;;;2.90;99.90;;;;;;4231782;28;20332;-60
2024/01/26 05:05:15;;;;;;;1.60;0.70;;;2.90;99.90;;;;;;4230704;28;20740;-60
2024/01/26 05:07:16;;;;;;;2.07;1.23;;;2.80;99.90;;;;;;4230921;28;20272;-59
2024/01/26 05:09:18;;;;;;;2.50;0.90;;;2.80;99.90;;;;;;4230134;28;20795;-59
2024/01/26 05:11:20;;;;;;;3.03;0.60;;;2.80;99.90;;;;;;4231702;27;20268;-60
2024/01/26 05:13:21;;;;;;;2.43;1.10;;;2.80;99.90;;;;;;4229520;28;20260;-56
2024/01/26 05:15:23;;;;;;;3.57;1.30;;;2.80;99.90;;;;;;4226605;28;20706;-62
2024/01/26 05:17:24;;;;;;;1.53;0.93;;;2.80;99.90;;;;;;4229845;28;20329;-55
2024/01/26 05:19:25;;;;;;;1.97;1.10;;;2.80;99.90;;;;;;4230789;28;20287;-63
2024/01/26 05:21:26;;;;;;;1.70;0.90;;;2.70;99.90;;;;;;4229990;27;20751;-60
2024/01/26 05:23:28;;;;;;;2.43;1.17;;;2.70;99.90;;;;;;4229887;28;20379;-60
2024/01/26 05:25:29;;;;;;;1.70;1.17;;;2.70;99.90;;;;;;4230554;28;20312;-60
2024/01/26 05:27:30;;;;;;;2.33;1.10;;;2.70;99.90;;;;;;4228988;27;20325;-60
2024/01/26 05:29:31;;;;;;;3.40;2.40;;;2.70;99.90;;;;;;4230656;28;20272;-60
2024/01/26 05:31:34;;;;;;;2.40;1.00;;;2.70;99.90;;;;;;4229455;27;20685;-60
2024/01/26 05:33:35;;;;;;;1.77;1.00;;;2.60;99.90;;;;;;4230862;27;20337;-60
2024/01/26 05:35:37;;;;;;;3.33;1.60;;;2.60;99.90;;;;;;4228894;28;20272;-60
2024/01/26 05:37:39;;;;;;;5.30;2.40;;;2.60;99.90;;;;;;4221425;27;20277;-61
2024/01/26 05:39:40;;;;;;;2.77;1.00;;;2.50;99.90;;;;;;4218911;28;20296;-60
2024/01/26 05:41:42;;;;;;;4.60;1.23;;;2.50;99.90;;;;;;4217811;28;20752;-60
2024/01/26 05:43:43;;;;;;;1.20;0.70;;;2.40;99.90;;;;;;4215816;28;20261;-59
2024/01/26 05:45:44;;;;;;;0.73;0.50;;;2.40;99.90;;;;;;4206546;28;20277;-60
2024/01/26 05:47:47;;;;;;;2.67;0.77;;;2.40;99.90;;;;;;4213898;28;20249;-57
2024/01/26 05:49:50;;;;;;;1.60;0.80;;;2.40;99.90;;;;;;4215264;28;20655;-60
2024/01/26 05:51:52;;;;;;;1.60;0.80;;;2.40;99.90;;;;;;4216193;28;20318;-59
2024/01/26 05:53:53;;;;;;;1.60;0.60;;;2.40;99.90;;;;;;4228622;28;20736;-60
2024/01/26 05:55:54;;;;;;;2.00;0.70;;;2.40;99.90;;;;;;4225399;28;20257;-61
2024/01/26 05:57:56;;;;;;;0.93;0.77;;;2.40;99.90;;;;;;4224535;28;20260;-61
2024/01/26 05:59:57;;;;;;;2.23;0.87;;;2.40;99.90;;;;;;4230033;28;20372;-60
2024/01/26 06:01:58;;;;;;;2.83;1.10;;;2.40;99.90;;;;;;4220130;28;20806;-59
2024/01/26 06:03:59;;;;;;;2.03;0.67;;;2.40;99.90;;;;;;4230017;28;20662;-59
2024/01/26 06:06:01;;;;;;;1.53;1.07;;;2.40;99.90;;;;;;4228922;28;20260;-60
2024/01/26 06:08:02;;;;;;;2.57;1.17;;;2.40;99.90;;;;;;4230629;27;20337;-60
2024/01/26 06:10:04;;;;;;;2.40;0.67;;;2.40;99.90;;;;;;4227703;28;20368;-60
2024/01/26 06:12:05;;;;;;;2.23;1.00;;;2.30;99.90;;;;;;4217199;28;20272;-59
2024/01/26 06:14:06;;;;;;;1.80;1.20;;;2.30;99.90;;;;;;4214923;28;20277;-61
2024/01/26 06:16:09;;;;;;;1.83;1.07;;;2.40;99.90;;;;;;4229622;28;20272;-61
2024/01/26 06:18:10;;;;;;;2.93;1.63;;;2.30;99.90;;;;;;4228399;28;20321;-60
2024/01/26 06:20:12;;;;;;;1.47;0.87;;;2.30;99.90;;;;;;4229774;28;21165;-59
2024/01/26 06:22:13;;;;;;;2.07;1.10;;;2.30;99.90;;;;;;4228402;28;20763;-64
2024/01/26 06:24:14;;;;;;;1.27;0.57;;;2.30;99.90;;;;;;4228964;28;20325;-61
2024/01/26 06:26:15;;;;;;;5.70;1.53;;;2.40;99.90;;;;;;4223116;28;20265;-60
2024/01/26 06:28:16;;;;;;;3.07;1.27;;;2.40;99.90;;;;;;4218648;28;20809;-60
2024/01/26 06:30:18;;;;;;;1.50;1.40;;;2.40;99.90;;;;;;4229339;28;20613;-60
2024/01/26 06:32:19;;;;;;;2.23;1.83;;;2.40;99.90;;;;;;4228981;27;20367;-60
2024/01/26 06:34:20;;;;;;;5.40;2.40;;;2.50;99.90;;;;;;4218412;28;20269;-60
2024/01/26 06:36:22;;;;;;;3.53;1.60;;;2.40;99.90;;;;;;4214191;28;20624;-58
2024/01/26 06:38:23;;;;;;;2.20;0.93;;;2.50;99.90;;;;;;4217648;28;20321;-60
2024/01/26 06:40:24;;;;;;;1.30;1.10;;;2.50;99.90;;;;;;4227988;28;20288;-57
2024/01/26 06:42:25;;;;;;;2.73;1.50;;;2.50;99.90;;;;;;4217693;27;20342;-59
2024/01/26 06:44:26;;;;;;;3.03;1.07;;;2.50;99.90;;;;;;4227686;28;20321;-54
2024/01/26 06:46:28;;;;;;;2.40;1.37;;;2.50;99.90;;;;;;4218476;28;20322;-58
2024/01/26 06:48:29;;;;;;;2.63;2.23;;;2.50;99.90;;;;;;4210723;28;20269;-58
2024/01/26 06:50:30;;;;;;;1.70;1.60;;;2.50;99.90;;;;;;4219497;28;20811;-58
2024/01/26 06:52:35;;;;;;;3.17;1.20;;;2.50;99.90;;;;;;4228217;28;20284;-59
2024/01/26 06:54:38;;;;;;;2.47;1.17;;;2.60;99.90;;;;;;4228267;27;20351;-59
2024/01/26 06:56:39;;;;;;;1.40;0.80;;;2.60;99.90;;;;;;4229537;28;20264;-59
2024/01/26 06:58:40;;;;;;;1.83;0.90;;;2.70;99.90;;;;;;4229394;28;20584;-55
2024/01/26 07:00:41;;;;;;;1.60;1.20;;;2.70;99.90;;;;;;4228481;27;20340;-60
2024/01/26 07:02:42;;;;;;;2.97;1.63;;;2.70;99.90;;;;;;4227687;27;20332;-57
2024/01/26 07:04:44;;;;;;;2.20;1.13;;;2.80;99.90;;;;;;4228859;28;20272;-60
2024/01/26 07:06:45;;;;;;;4.20;1.27;;;2.80;99.90;;;;;;4228599;28;20252;-59
2024/01/26 07:08:46;;;;;;;2.90;1.30;;;2.80;99.90;;;;;;4229396;28;20267;-59
2024/01/26 07:10:47;;;;;;;1.57;1.00;;;3.10;99.90;;;;;;4228188;28;20597;-60
2024/01/26 07:12:49;;;;;;;1.20;0.90;;;3.20;99.90;;;;;;4229659;28;20264;-59
2024/01/26 07:14:50;;;;;;;0.70;0.70;;;3.30;99.90;;;;;;4228012;28;20272;-55
2024/01/26 07:16:51;;;;;;;1.40;0.83;;;3.30;99.90;;;;;;4228841;28;20259;-60
2024/01/26 07:18:52;;;;;;;1.73;1.00;;;3.30;99.90;;;;;;4227525;28;20613;-60
2024/01/26 07:20:53;;;;;;;1.30;1.17;;;3.20;99.90;;;;;;4228634;28;20353;-59
2024/01/26 07:22:55;;;;;;;1.73;0.97;;;3.20;99.90;;;;;;4226446;28;20601;-59
2024/01/26 07:24:56;;;;;;;1.30;1.20;;;3.10;99.90;;;;;;4228918;28;20291;-59
2024/01/26 07:26:58;;;;;;;1.47;0.97;;;3.20;99.90;;;;;;4227751;28;20309;-59
2024/01/26 07:28:59;;;;;;;1.47;0.70;;;3.30;99.90;;;;;;4225025;28;20376;-57
2024/01/26 07:31:00;;;;;;;2.33;1.10;;;3.20;99.90;;;;;;4218257;28;20727;-57
2024/01/26 07:33:01;;;;;;;2.43;1.07;;;3.20;99.90;;;;;;4227958;28;20264;-59
2024/01/26 07:35:04;;;;;;;2.00;0.77;;;3.10;99.90;;;;;;4226855;28;20326;-58
2024/01/26 07:37:05;;;;;;;2.57;1.00;;;3.20;99.90;;;;;;4227981;28;20276;-59
2024/01/26 07:39:06;;;;;;;2.60;1.47;;;3.10;99.90;;;;;;4228740;28;20313;-60
2024/01/26 07:41:08;;;;;;;1.90;0.90;;;3.00;99.90;;;;;;4227651;28;20636;-61
2024/01/26 07:43:09;;;;;;;2.27;1.40;;;3.00;99.90;;;;;;4228310;28;20256;-62
2024/01/26 07:45:11;;;;;;;0.77;0.77;;;3.00;99.90;;;;;;4227078;28;20268;-60
2024/01/26 07:47:12;;;;;;;2.17;1.30;;;3.10;99.90;;;;;;4227256;28;20260;-61
2024/01/26 07:49:14;;;;;;;4.17;1.57;;;3.30;99.90;;;;;;4226524;28;20272;-60
2024/01/26 07:51:15;;;;;;;1.77;1.13;;;3.40;99.90;;;;;;4227086;27;20353;-57
2024/01/26 07:53:16;;;;;;;3.10;1.00;;;3.70;99.90;;;;;;4227004;28;20284;-62
2024/01/26 07:55:17;;;;;;;1.60;1.13;;;4.10;99.90;;;;;;4228070;28;20271;-62
2024/01/26 07:57:19;;;;;;;3.10;1.60;;;4.30;99.90;;;;;;4227424;28;20341;-58
2024/01/26 07:59:20;;;;;;;2.83;1.13;;;4.60;99.90;;;;;;4228452;28;20306;-62
2024/01/26 08:01:21;;;;;;;2.30;1.00;;;4.50;99.90;;;;;;4227470;28;20363;-60
2024/01/26 08:03:22;;;;;;;1.63;1.07;;;4.60;99.90;;;;;;4228191;28;20280;-61
2024/01/26 08:05:24;;;;;;;1.50;0.80;;;4.60;99.90;;;;;;4227857;28;20252;-61
2024/01/26 08:07:25;;;;;;;2.10;0.63;;;4.80;99.90;;;;;;4227582;28;20321;-60
2024/01/26 08:09:26;;;;;;;1.23;0.80;;;5.00;99.90;;;;;;4228333;28;20260;-59
2024/01/26 08:11:27;;;;;;;5.70;1.17;;;5.10;99.90;;;;;;4227726;28;20264;-61
2024/01/26 08:13:29;;;;;;;1.43;1.00;;;5.10;99.90;;;;;;4228328;27;20350;-60
2024/01/26 08:15:30;;;;;;;1.70;1.13;;;5.20;99.90;;;;;;4227210;27;20336;-60
2024/01/26 08:17:31;;;;;;;3.63;0.80;;;5.20;99.90;;;;;;4228281;28;20260;-60
2024/01/26 08:19:32;;;;;;;1.10;0.83;;;4.80;99.90;;;;;;4227299;27;20317;-58
2024/01/26 08:21:34;;;;;;;0.80;0.50;;;4.50;99.90;;;;;;4228103;28;20682;-61
2024/01/26 08:23:36;;;;;;;1.30;0.70;;;4.20;99.90;;;;;;4227103;28;20793;-60
2024/01/26 08:25:37;;;;;;;2.10;0.80;;;4.00;99.90;;;;;;4228516;27;20318;-61
2024/01/26 08:27:39;;;;;;;0.87;0.60;;;3.80;99.90;;;;;;4227199;28;20276;-60
2024/01/26 08:29:40;;;;;;;0.93;0.67;;;3.90;99.90;;;;;;4228506;28;20329;-60
2024/01/26 08:31:41;;;;;;;1.47;0.70;;;4.00;99.90;;;;;;4227127;28;20260;-62
2024/01/26 08:33:42;;;;;;;2.90;0.90;;;4.00;99.90;;;;;;4227532;28;20272;-61
2024/01/26 08:35:43;;;;;;;1.77;0.90;;;4.00;99.90;;;;;;4227318;28;20253;-62
2024/01/26 08:37:45;;;;;;;2.13;0.60;;;3.90;99.90;;;;;;4227741;28;20832;-62
2024/01/26 08:39:48;;;;;;;2.23;0.80;;;3.90;99.90;;;;;;4227704;28;20592;-61
2024/01/26 08:41:49;;;;;;;1.90;0.50;;;3.80;99.90;;;;;;4227713;28;20268;-61
2024/01/26 08:43:50;;;;;;;1.30;1.07;;;3.80;99.90;;;;;;4228054;28;20301;-62
2024/01/26 08:45:51;;;;;;;2.23;0.87;;;3.80;99.90;;;;;;4227131;28;20264;-57
2024/01/26 08:47:53;;;;;;;2.10;0.80;;;3.80;99.90;;;;;;4228303;28;20284;-60
2024/01/26 08:49:55;;;;;;;2.07;0.70;;;3.80;99.90;;;;;;4226958;28;20264;-60
2024/01/26 08:51:59;;;;;;;1.30;0.70;;;3.70;99.90;;;;;;4228027;28;20747;-59
2024/01/26 08:54:00;;;;;;;0.63;0.60;;;3.70;99.90;;;;;;4226949;28;20272;-61
2024/01/26 08:56:05;;;;;;;1.60;0.80;;;3.70;99.90;;;;;;4228336;28;20381;-59
2024/01/26 08:58:06;;;;;;;1.70;0.90;;;3.70;99.90;;;;;;4226815;28;20276;-61
2024/01/26 09:00:09;;;;;;;1.77;0.80;;;3.70;99.90;;;;;;4228135;28;20345;-59
2024/01/26 09:02:10;;;;;;;1.77;0.97;;;3.70;99.90;;;;;;4226361;28;20325;-58
2024/01/26 09:04:11;;;;;;;1.60;0.67;;;3.80;99.90;;;;;;4228325;28;20264;-61
2024/01/26 09:06:13;;;;;;;2.37;0.87;;;3.70;99.90;;;;;;4226982;28;20322;-60
2024/01/26 09:08:14;;;;;;;2.40;1.00;;;3.70;99.90;;;;;;4227899;28;20263;-61
2024/01/26 09:10:16;;;;;;;3.23;0.80;;;3.70;99.90;;;;;;4226857;28;20248;-59
2024/01/26 09:12:17;;;;;;;1.33;0.80;;;3.80;99.90;;;;;;4227694;28;20268;-60
2024/01/26 09:14:18;;;;;;;1.43;1.30;;;3.80;99.90;;;;;;4227483;28;20268;-59
2024/01/26 09:16:19;;;;;;;2.03;0.83;;;4.00;99.90;;;;;;4226853;28;20264;-60
2024/01/26 09:18:20;;;;;;;1.23;0.70;;;4.00;99.90;;;;;;4227695;28;20257;-61
2024/01/26 09:20:21;;;;;;;1.00;0.60;;;4.00;99.90;;;;;;4225336;28;20288;-61
2024/01/26 09:22:24;;;;;;;1.67;0.80;;;3.90;99.90;;;;;;4227267;28;20689;-60
2024/01/26 09:24:25;;;;;;;1.37;1.07;;;3.90;99.90;;;;;;4226617;28;20257;-61
2024/01/26 09:26:28;;;;;;;0.47;0.47;;;3.90;99.90;;;;;;4227816;28;20321;-61
2024/01/26 09:28:29;;;;;;;1.87;0.70;;;3.80;99.90;;;;;;4226433;28;20345;-58
2024/01/26 09:30:30;;;;;;;1.10;0.50;;;3.80;99.90;;;;;;4227861;28;20321;-62
2024/01/26 09:32:33;;;;;;;2.13;1.00;;;3.80;99.90;;;;;;4226802;28;20676;-61
2024/01/26 09:34:35;;;;;;;1.97;0.70;;;3.80;99.90;;;;;;4227817;28;20329;-61
2024/01/26 09:36:36;;;;;;;2.00;0.80;;;3.70;99.90;;;;;;4226380;28;20256;-62
2024/01/26 09:38:37;;;;;;;0.73;0.63;;;3.80;99.90;;;;;;4227601;28;20781;-62
2024/01/26 09:40:39;;;;;;;1.17;0.57;;;3.80;99.90;;;;;;4226546;28;20637;-60
2024/01/26 09:42:40;;;;;;;3.33;1.00;;;3.80;99.90;;;;;;4228437;28;20317;-62
2024/01/26 09:44:42;;;;;;;1.70;0.90;;;3.80;99.90;;;;;;4229317;28;20577;-61
2024/01/26 09:46:43;;;;;;;2.83;0.50;;;3.80;99.90;;;;;;4230232;27;20280;-61
2024/01/26 09:48:46;;;;;;;1.87;1.07;;;3.80;99.90;;;;;;4230336;28;20256;-60
2024/01/26 09:50:53;;;;;;;1.37;0.77;;;3.90;99.90;;;;;;4230085;27;20746;-60
2024/01/26 09:52:57;;;;;;;2.90;0.97;;;3.90;99.90;;;;;;4230403;27;20322;-60
2024/01/26 09:55:01;;;;;;;1.43;0.93;;;3.90;99.90;;;;;;4229573;27;20741;-61
2024/01/26 09:57:03;;;;;;;4.83;2.87;;;3.90;99.90;;;;;;4230641;27;20309;-61
2024/01/26 09:59:08;;;;;;;2.03;0.80;;;4.00;99.90;;;;;;4229444;28;20264;-58
2024/01/26 10:01:11;;;;;;;2.53;0.40;;;3.90;99.90;;;;;;4230495;27;20682;-60
2024/01/26 10:03:13;;;;;;;3.37;1.87;;;4.00;99.90;;;;;;4229215;28;20260;-59
2024/01/26 10:05:17;;;;;;;3.93;0.87;;;3.90;99.90;;;;;;4230666;27;20268;-60
2024/01/26 10:07:18;;;;;;;2.20;0.83;;;3.90;99.90;;;;;;4229505;27;20302;-59
2024/01/26 10:09:19;;;;;;;0.70;0.57;;;4.00;99.90;;;;;;4230333;28;20264;-59
2024/01/26 10:11:21;;;;;;;0.60;0.40;;;3.90;99.90;;;;;;4229432;27;20268;-61
2024/01/26 10:13:22;;;;;;;1.27;0.57;;;4.00;99.90;;;;;;4230433;27;20280;-59
2024/01/26 10:15:23;;;;;;;0.93;0.50;;;4.00;99.90;;;;;;4229087;28;20275;-56
2024/01/26 10:17:24;;;;;;;3.70;0.90;;;4.00;99.90;;;;;;4230307;27;20272;-62
2024/01/26 10:19:26;;;;;;;0.77;0.70;;;4.00;99.90;;;;;;4229088;28;20248;-61
2024/01/26 10:21:28;;;;;;;1.83;1.07;;;4.00;99.90;;;;;;4229714;27;20341;-62
2024/01/26 10:23:29;;;;;;;2.10;1.10;;;4.00;99.90;;;;;;4229376;28;20313;-60
2024/01/26 10:25:31;;;;;;;2.23;0.70;;;4.00;99.90;;;;;;4229252;28;20283;-61
2024/01/26 10:27:32;;;;;;;3.07;0.70;;;4.00;99.90;;;;;;4229597;28;20329;-60
2024/01/26 10:29:36;;;;;;;2.30;0.70;;;4.10;99.90;;;;;;4228882;28;20762;-62
2024/01/26 10:31:40;;;;;;;1.23;0.70;;;4.10;99.90;;;;;;4229765;28;20321;-61
2024/01/26 10:33:45;;;;;;;3.30;0.60;;;4.10;99.90;;;;;;4228652;27;20280;-59
2024/01/26 10:35:53;;;;;;;3.67;0.87;;;4.00;99.90;;;;;;4230019;28;20272;-61
2024/01/26 10:37:56;;;;;;;1.37;0.70;;;4.10;99.90;;;;;;4228810;28;20378;-60
2024/01/26 10:39:58;;;;;;;2.00;0.60;;;4.10;99.90;;;;;;4230154;27;20260;-61
2024/01/26 10:42:04;;;;;;;1.37;0.43;;;4.10;99.90;;;;;;4228719;28;20831;-60